sensor_id;sensor_type;location;lat;lon;timestamp;temperature;humidity
51567;DHT22;37657;53.182;5.638;2022-12-18T00:01:47;-1.10;99.90
51567;DHT22;37657;53.182;5.638;2022-12-18T00:04:32;-1.10;99.90
51567;DHT22;37657;53.182;5.638;2022-12-18T00:07:00;-1.00;99.90
51567;DHT22;37657;53.182;5.638;2022-12-18T00:09:26;-1.20;99.90
51567;DHT22;37657;53.182;5.638;2022-12-18T00:11:51;-1.00;99.90
51567;DHT22;37657;53.182;5.638;2022-12-18T00:14:17;-1.10;99.90
51567;DHT22;37657;53.182;5.638;2022-12-18T00:16:46;-1.00;99.90
51567;DHT22;37657;53.182;5.638;2022-12-18T00:19:13;-1.10;99.90
51567;DHT22;37657;53.182;5.638;2022-12-18T00:21:43;-1.10;99.90
51567;DHT22;37657;53.182;5.638;2022-12-18T00:24:10;-1.10;99.90
51567;DHT22;37657;53.182;5.638;2022-12-18T00:26:37;-1.20;99.90
51567;DHT22;37657;53.182;5.638;2022-12-18T00:29:06;-1.10;99.90
51567;DHT22;37657;53.182;5.638;2022-12-18T00:31:33;-1.20;99.90
51567;DHT22;37657;53.182;5.638;2022-12-18T00:33:59;-1.20;99.90
51567;DHT22;37657;53.182;5.638;2022-12-18T00:36:30;-1.20;99.90
51567;DHT22;37657;53.182;5.638;2022-12-18T00:38:58;-1.10;99.90
51567;DHT22;37657;53.182;5.638;2022-12-18T00:41:24;-1.10;99.90
51567;DHT22;37657;53.182;5.638;2022-12-18T00:44:11;-1.20;99.90
51567;DHT22;37657;53.182;5.638;2022-12-18T00:46:37;-1.10;99.90
51567;DHT22;37657;53.182;5.638;2022-12-18T00:49:03;-1.30;99.90
51567;DHT22;37657;53.182;5.638;2022-12-18T00:51:29;-1.20;99.90
51567;DHT22;37657;53.182;5.638;2022-12-18T00:53:54;-1.30;99.90
51567;DHT22;37657;53.182;5.638;2022-12-18T00:56:20;-1.30;99.90
51567;DHT22;37657;53.182;5.638;2022-12-18T00:58:46;-1.20;99.90
51567;DHT22;37657;53.182;5.638;2022-12-18T01:01:11;-1.30;99.90
51567;DHT22;37657;53.182;5.638;2022-12-18T01:03:37;-1.10;99.90
51567;DHT22;37657;53.182;5.638;2022-12-18T01:06:07;-1.20;99.90
51567;DHT22;37657;53.182;5.638;2022-12-18T01:08:33;-1.30;99.90
51567;DHT22;37657;53.182;5.638;2022-12-18T01:10:58;-1.30;99.90
51567;DHT22;37657;53.182;5.638;2022-12-18T01:13:24;-1.10;99.90
51567;DHT22;37657;53.182;5.638;2022-12-18T01:15:50;-1.30;99.90
51567;DHT22;37657;53.182;5.638;2022-12-18T01:18:16;-1.20;99.90
51567;DHT22;37657;53.182;5.638;2022-12-18T01:20:41;-1.10;99.90
51567;DHT22;37657;53.182;5.638;2022-12-18T01:23:07;-1.30;99.90
51567;DHT22;37657;53.182;5.638;2022-12-18T01:25:33;-1.00;99.90
51567;DHT22;37657;53.182;5.638;2022-12-18T01:27:58;-1.20;99.90
51567;DHT22;37657;53.182;5.638;2022-12-18T01:30:24;-1.10;99.90
51567;DHT22;37657;53.182;5.638;2022-12-18T01:32:49;-1.30;99.90
51567;DHT22;37657;53.182;5.638;2022-12-18T01:35:15;-1.30;99.90
51567;DHT22;37657;53.182;5.638;2022-12-18T01:37:40;-1.20;99.90
51567;DHT22;37657;53.182;5.638;2022-12-18T01:40:06;-1.30;99.90
51567;DHT22;37657;53.182;5.638;2022-12-18T01:42:32;-1.40;99.90
51567;DHT22;37657;53.182;5.638;2022-12-18T01:47:45;-1.50;99.90
51567;DHT22;37657;53.182;5.638;2022-12-18T01:52:52;-1.30;99.90
51567;DHT22;37657;53.182;5.638;2022-12-18T01:55:20;-1.50;99.90
51567;DHT22;37657;53.182;5.638;2022-12-18T01:57:48;-1.40;99.90
51567;DHT22;37657;53.182;5.638;2022-12-18T02:00:17;-1.50;99.90
51567;DHT22;37657;53.182;5.638;2022-12-18T02:02:44;-1.40;99.90
51567;DHT22;37657;53.182;5.638;2022-12-18T02:05:12;-1.50;99.90
51567;DHT22;37657;53.182;5.638;2022-12-18T02:10:27;-1.70;99.90
51567;DHT22;37657;53.182;5.638;2022-12-18T02:13:12;-1.80;99.90
51567;DHT22;37657;53.182;5.638;2022-12-18T02:16:59;-1.70;99.90
51567;DHT22;37657;53.182;5.638;2022-12-18T02:18:59;-1.60;99.90
51567;DHT22;37657;53.182;5.638;2022-12-18T02:24:42;-1.70;99.90
51567;DHT22;37657;53.182;5.638;2022-12-18T02:27:10;-1.50;99.90
51567;DHT22;37657;53.182;5.638;2022-12-18T02:29:48;-1.50;99.90
51567;DHT22;37657;53.182;5.638;2022-12-18T02:32:20;-1.60;99.90
51567;DHT22;37657;53.182;5.638;2022-12-18T02:34:48;-1.70;99.90
51567;DHT22;37657;53.182;5.638;2022-12-18T02:37:18;-1.70;99.90
51567;DHT22;37657;53.182;5.638;2022-12-18T02:39:46;-1.50;99.90
51567;DHT22;37657;53.182;5.638;2022-12-18T02:42:13;-1.60;99.90
51567;DHT22;37657;53.182;5.638;2022-12-18T02:44:48;-1.70;99.90
51567;DHT22;37657;53.182;5.638;2022-12-18T02:47:16;-1.60;99.90
51567;DHT22;37657;53.182;5.638;2022-12-18T02:53:01;-1.70;99.90
51567;DHT22;37657;53.182;5.638;2022-12-18T02:58:16;-1.80;99.90
51567;DHT22;37657;53.182;5.638;2022-12-18T03:00:58;-2.00;99.90
51567;DHT22;37657;53.182;5.638;2022-12-18T03:03:38;-2.00;99.90
51567;DHT22;37657;53.182;5.638;2022-12-18T03:06:12;-2.10;99.90
51567;DHT22;37657;53.182;5.638;2022-12-18T03:08:44;-2.30;99.90
51567;DHT22;37657;53.182;5.638;2022-12-18T03:11:13;-2.30;99.90
51567;DHT22;37657;53.182;5.638;2022-12-18T03:13:44;-2.50;99.90
51567;DHT22;37657;53.182;5.638;2022-12-18T03:16:15;-2.50;99.90
51567;DHT22;37657;53.182;5.638;2022-12-18T03:18:46;-2.70;99.90
51567;DHT22;37657;53.182;5.638;2022-12-18T03:21:19;-2.70;99.90
51567;DHT22;37657;53.182;5.638;2022-12-18T03:23:49;-2.80;99.90
51567;DHT22;37657;53.182;5.638;2022-12-18T03:26:18;-2.90;99.90
51567;DHT22;37657;53.182;5.638;2022-12-18T03:29:02;-3.10;99.90
51567;DHT22;37657;53.182;5.638;2022-12-18T03:31:29;-3.10;99.90
51567;DHT22;37657;53.182;5.638;2022-12-18T03:33:59;-3.00;99.90
51567;DHT22;37657;53.182;5.638;2022-12-18T03:36:26;-3.00;99.90
51567;DHT22;37657;53.182;5.638;2022-12-18T03:38:55;-3.10;99.90
51567;DHT22;37657;53.182;5.638;2022-12-18T03:41:27;-3.00;99.90
51567;DHT22;37657;53.182;5.638;2022-12-18T03:44:11;-3.00;99.90
51567;DHT22;37657;53.182;5.638;2022-12-18T03:46:54;-3.20;99.90
51567;DHT22;37657;53.182;5.638;2022-12-18T03:49:53;-3.10;99.90
51567;DHT22;37657;53.182;5.638;2022-12-18T03:52:26;-3.20;99.90
51567;DHT22;37657;53.182;5.638;2022-12-18T03:54:54;-3.30;99.90
51567;DHT22;37657;53.182;5.638;2022-12-18T03:57:23;-3.40;99.90
51567;DHT22;37657;53.182;5.638;2022-12-18T03:59:53;-3.30;99.90
51567;DHT22;37657;53.182;5.638;2022-12-18T04:02:22;-3.40;99.90
51567;DHT22;37657;53.182;5.638;2022-12-18T04:04:53;-3.50;99.90
51567;DHT22;37657;53.182;5.638;2022-12-18T04:07:21;-3.50;99.90
51567;DHT22;37657;53.182;5.638;2022-12-18T04:09:48;-3.30;99.90
51567;DHT22;37657;53.182;5.638;2022-12-18T04:12:15;-3.20;99.90
51567;DHT22;37657;53.182;5.638;2022-12-18T04:14:41;-3.20;99.90
51567;DHT22;37657;53.182;5.638;2022-12-18T04:17:06;-3.10;99.90
51567;DHT22;37657;53.182;5.638;2022-12-18T04:19:32;-3.20;99.90
51567;DHT22;37657;53.182;5.638;2022-12-18T04:21:57;-3.30;99.90
51567;DHT22;37657;53.182;5.638;2022-12-18T04:24:23;-3.30;99.90
51567;DHT22;37657;53.182;5.638;2022-12-18T04:26:48;-3.40;99.90
51567;DHT22;37657;53.182;5.638;2022-12-18T04:29:14;-3.40;99.90
51567;DHT22;37657;53.182;5.638;2022-12-18T04:31:39;-3.60;99.90
51567;DHT22;37657;53.182;5.638;2022-12-18T04:34:05;-3.60;99.90
51567;DHT22;37657;53.182;5.638;2022-12-18T04:36:30;-3.70;99.90
51567;DHT22;37657;53.182;5.638;2022-12-18T04:38:56;-3.60;99.90
51567;DHT22;37657;53.182;5.638;2022-12-18T04:41:22;-3.60;99.90
51567;DHT22;37657;53.182;5.638;2022-12-18T04:43:47;-3.80;99.90
51567;DHT22;37657;53.182;5.638;2022-12-18T04:46:13;-3.70;99.90
51567;DHT22;37657;53.182;5.638;2022-12-18T04:48:38;-3.80;99.90
51567;DHT22;37657;53.182;5.638;2022-12-18T04:51:05;-3.80;99.90
51567;DHT22;37657;53.182;5.638;2022-12-18T04:53:30;-3.70;99.90
51567;DHT22;37657;53.182;5.638;2022-12-18T04:56:22;-3.70;99.90
51567;DHT22;37657;53.182;5.638;2022-12-18T04:58:48;-3.80;99.90
51567;DHT22;37657;53.182;5.638;2022-12-18T05:01:16;-3.60;99.90
51567;DHT22;37657;53.182;5.638;2022-12-18T05:03:42;-3.60;99.90
51567;DHT22;37657;53.182;5.638;2022-12-18T05:06:07;-3.60;99.90
51567;DHT22;37657;53.182;5.638;2022-12-18T05:08:33;-3.50;99.90
51567;DHT22;37657;53.182;5.638;2022-12-18T05:13:25;-3.70;99.90
51567;DHT22;37657;53.182;5.638;2022-12-18T05:15:52;-3.80;99.90
51567;DHT22;37657;53.182;5.638;2022-12-18T05:18:18;-3.80;99.90
51567;DHT22;37657;53.182;5.638;2022-12-18T05:20:43;-3.80;99.90
51567;DHT22;37657;53.182;5.638;2022-12-18T05:23:09;-3.90;99.90
51567;DHT22;37657;53.182;5.638;2022-12-18T05:25:34;-4.00;99.90
51567;DHT22;37657;53.182;5.638;2022-12-18T05:28:00;-4.10;99.90
51567;DHT22;37657;53.182;5.638;2022-12-18T05:30:26;-4.20;99.90
51567;DHT22;37657;53.182;5.638;2022-12-18T05:32:51;-4.10;99.90
51567;DHT22;37657;53.182;5.638;2022-12-18T05:35:17;-4.20;99.90
51567;DHT22;37657;53.182;5.638;2022-12-18T05:37:42;-4.20;99.90
51567;DHT22;37657;53.182;5.638;2022-12-18T05:40:08;-4.30;99.90
51567;DHT22;37657;53.182;5.638;2022-12-18T05:42:34;-4.30;99.90
51567;DHT22;37657;53.182;5.638;2022-12-18T05:44:59;-4.30;99.90
51567;DHT22;37657;53.182;5.638;2022-12-18T05:47:26;-4.40;99.90
51567;DHT22;37657;53.182;5.638;2022-12-18T05:49:52;-4.50;99.90
51567;DHT22;37657;53.182;5.638;2022-12-18T05:52:17;-4.50;99.90
51567;DHT22;37657;53.182;5.638;2022-12-18T05:54:43;-4.50;99.90
51567;DHT22;37657;53.182;5.638;2022-12-18T05:57:08;-4.40;99.90
51567;DHT22;37657;53.182;5.638;2022-12-18T05:59:34;-4.60;99.90
51567;DHT22;37657;53.182;5.638;2022-12-18T06:02:00;-4.60;99.90
51567;DHT22;37657;53.182;5.638;2022-12-18T06:04:27;-4.60;99.90
51567;DHT22;37657;53.182;5.638;2022-12-18T06:06:54;-4.70;99.90
51567;DHT22;37657;53.182;5.638;2022-12-18T06:09:19;-4.80;99.90
51567;DHT22;37657;53.182;5.638;2022-12-18T06:11:45;-4.70;99.90
51567;DHT22;37657;53.182;5.638;2022-12-18T06:14:10;-4.60;99.90
51567;DHT22;37657;53.182;5.638;2022-12-18T06:16:36;-4.60;99.90
51567;DHT22;37657;53.182;5.638;2022-12-18T06:19:03;-4.60;99.90
51567;DHT22;37657;53.182;5.638;2022-12-18T06:21:30;-4.70;99.90
51567;DHT22;37657;53.182;5.638;2022-12-18T06:23:56;-4.70;99.90
51567;DHT22;37657;53.182;5.638;2022-12-18T06:26:22;-4.90;99.90
51567;DHT22;37657;53.182;5.638;2022-12-18T06:28:47;-4.80;99.90
51567;DHT22;37657;53.182;5.638;2022-12-18T06:31:13;-4.80;99.90
51567;DHT22;37657;53.182;5.638;2022-12-18T06:33:39;-4.80;99.90
51567;DHT22;37657;53.182;5.638;2022-12-18T06:36:10;-4.80;99.90
51567;DHT22;37657;53.182;5.638;2022-12-18T06:38:38;-4.70;99.90
51567;DHT22;37657;53.182;5.638;2022-12-18T06:41:11;-4.60;99.90
51567;DHT22;37657;53.182;5.638;2022-12-18T06:43:37;-4.50;99.90
51567;DHT22;37657;53.182;5.638;2022-12-18T06:46:04;-4.50;99.90
51567;DHT22;37657;53.182;5.638;2022-12-18T06:48:30;-4.60;99.90
51567;DHT22;37657;53.182;5.638;2022-12-18T06:50:56;-4.50;99.90
51567;DHT22;37657;53.182;5.638;2022-12-18T06:53:22;-4.60;99.90
51567;DHT22;37657;53.182;5.638;2022-12-18T06:55:48;-4.60;99.90
51567;DHT22;37657;53.182;5.638;2022-12-18T06:58:14;-4.50;99.90
51567;DHT22;37657;53.182;5.638;2022-12-18T07:00:40;-4.50;99.90
51567;DHT22;37657;53.182;5.638;2022-12-18T07:03:06;-4.70;99.90
51567;DHT22;37657;53.182;5.638;2022-12-18T07:05:31;-4.60;99.90
51567;DHT22;37657;53.182;5.638;2022-12-18T07:07:57;-4.60;99.90
51567;DHT22;37657;53.182;5.638;2022-12-18T07:10:23;-4.50;99.90
51567;DHT22;37657;53.182;5.638;2022-12-18T07:12:49;-4.50;99.90
51567;DHT22;37657;53.182;5.638;2022-12-18T07:15:14;-4.50;99.90
51567;DHT22;37657;53.182;5.638;2022-12-18T07:17:40;-4.60;99.90
51567;DHT22;37657;53.182;5.638;2022-12-18T07:20:06;-4.70;99.90
51567;DHT22;37657;53.182;5.638;2022-12-18T07:22:31;-4.60;99.90
51567;DHT22;37657;53.182;5.638;2022-12-18T07:24:58;-4.60;99.90
51567;DHT22;37657;53.182;5.638;2022-12-18T07:27:24;-4.60;99.90
51567;DHT22;37657;53.182;5.638;2022-12-18T07:29:49;-4.70;99.90
51567;DHT22;37657;53.182;5.638;2022-12-18T07:32:15;-4.60;99.90
51567;DHT22;37657;53.182;5.638;2022-12-18T07:34:41;-4.70;99.90
51567;DHT22;37657;53.182;5.638;2022-12-18T07:37:06;-4.60;99.90
51567;DHT22;37657;53.182;5.638;2022-12-18T07:39:32;-4.60;99.90
51567;DHT22;37657;53.182;5.638;2022-12-18T07:41:57;-4.60;99.90
51567;DHT22;37657;53.182;5.638;2022-12-18T07:44:41;-4.60;99.90
51567;DHT22;37657;53.182;5.638;2022-12-18T07:47:07;-4.60;99.90
51567;DHT22;37657;53.182;5.638;2022-12-18T07:49:33;-4.60;99.90
51567;DHT22;37657;53.182;5.638;2022-12-18T07:51:58;-4.60;99.90
51567;DHT22;37657;53.182;5.638;2022-12-18T07:54:24;-4.60;99.90
51567;DHT22;37657;53.182;5.638;2022-12-18T07:56:51;-4.60;99.90
51567;DHT22;37657;53.182;5.638;2022-12-18T07:59:17;-4.60;99.90
51567;DHT22;37657;53.182;5.638;2022-12-18T08:01:43;-4.60;99.90
51567;DHT22;37657;53.182;5.638;2022-12-18T08:04:09;-4.50;99.90
51567;DHT22;37657;53.182;5.638;2022-12-18T08:06:34;-4.50;99.90
51567;DHT22;37657;53.182;5.638;2022-12-18T08:09:00;-4.60;99.90
51567;DHT22;37657;53.182;5.638;2022-12-18T08:11:26;-4.40;99.90
51567;DHT22;37657;53.182;5.638;2022-12-18T08:13:53;-4.50;99.90
51567;DHT22;37657;53.182;5.638;2022-12-18T08:16:19;-4.30;99.90
51567;DHT22;37657;53.182;5.638;2022-12-18T08:18:45;-4.30;99.90
51567;DHT22;37657;53.182;5.638;2022-12-18T08:21:17;-4.20;99.90
51567;DHT22;37657;53.182;5.638;2022-12-18T08:23:43;-4.10;99.90
51567;DHT22;37657;53.182;5.638;2022-12-18T08:26:13;-3.90;99.90
51567;DHT22;37657;53.182;5.638;2022-12-18T08:28:39;-3.90;99.90
51567;DHT22;37657;53.182;5.638;2022-12-18T08:31:06;-3.80;99.90
51567;DHT22;37657;53.182;5.638;2022-12-18T08:33:32;-3.80;99.90
51567;DHT22;37657;53.182;5.638;2022-12-18T08:36:02;-3.80;99.90
51567;DHT22;37657;53.182;5.638;2022-12-18T08:38:27;-3.50;99.90
51567;DHT22;37657;53.182;5.638;2022-12-18T08:41:03;-3.70;99.90
51567;DHT22;37657;53.182;5.638;2022-12-18T08:43:29;-3.70;99.90
51567;DHT22;37657;53.182;5.638;2022-12-18T08:46:13;-3.70;99.90
51567;DHT22;37657;53.182;5.638;2022-12-18T08:48:40;-3.60;99.90
51567;DHT22;37657;53.182;5.638;2022-12-18T08:51:06;-3.50;99.90
51567;DHT22;37657;53.182;5.638;2022-12-18T08:53:32;-3.50;99.90
51567;DHT22;37657;53.182;5.638;2022-12-18T08:55:57;-3.60;99.90
51567;DHT22;37657;53.182;5.638;2022-12-18T08:58:23;-3.50;99.90
51567;DHT22;37657;53.182;5.638;2022-12-18T09:00:49;-3.40;99.90
51567;DHT22;37657;53.182;5.638;2022-12-18T09:03:16;-3.40;99.90
51567;DHT22;37657;53.182;5.638;2022-12-18T09:05:43;-3.40;99.90
51567;DHT22;37657;53.182;5.638;2022-12-18T09:08:10;-3.30;99.90
51567;DHT22;37657;53.182;5.638;2022-12-18T09:10:42;-3.20;99.90
51567;DHT22;37657;53.182;5.638;2022-12-18T09:13:10;-3.10;99.90
51567;DHT22;37657;53.182;5.638;2022-12-18T09:15:44;-3.10;99.90
51567;DHT22;37657;53.182;5.638;2022-12-18T09:18:15;-3.00;99.90
51567;DHT22;37657;53.182;5.638;2022-12-18T09:20:41;-2.90;99.90
51567;DHT22;37657;53.182;5.638;2022-12-18T09:23:07;-2.90;99.90
51567;DHT22;37657;53.182;5.638;2022-12-18T09:25:33;-2.90;99.90
51567;DHT22;37657;53.182;5.638;2022-12-18T09:28:22;-2.90;99.90
51567;DHT22;37657;53.182;5.638;2022-12-18T09:30:48;-2.80;99.90
51567;DHT22;37657;53.182;5.638;2022-12-18T09:33:15;-2.70;99.90
51567;DHT22;37657;53.182;5.638;2022-12-18T09:35:42;-2.70;99.90
51567;DHT22;37657;53.182;5.638;2022-12-18T09:38:12;-2.50;99.90
51567;DHT22;37657;53.182;5.638;2022-12-18T09:40:45;-2.50;99.90
51567;DHT22;37657;53.182;5.638;2022-12-18T09:43:21;-2.50;99.90
51567;DHT22;37657;53.182;5.638;2022-12-18T09:45:55;-2.40;99.90
51567;DHT22;37657;53.182;5.638;2022-12-18T09:48:26;-2.50;99.90
51567;DHT22;37657;53.182;5.638;2022-12-18T09:51:00;-2.40;99.90
51567;DHT22;37657;53.182;5.638;2022-12-18T09:53:31;-2.20;99.90
51567;DHT22;37657;53.182;5.638;2022-12-18T09:56:00;-2.20;99.90
51567;DHT22;37657;53.182;5.638;2022-12-18T09:58:39;-2.10;99.90
51567;DHT22;37657;53.182;5.638;2022-12-18T10:01:21;-2.00;99.90
51567;DHT22;37657;53.182;5.638;2022-12-18T10:03:48;-2.00;99.90
51567;DHT22;37657;53.182;5.638;2022-12-18T10:06:26;-2.00;99.90
51567;DHT22;37657;53.182;5.638;2022-12-18T10:09:00;-1.90;99.90
51567;DHT22;37657;53.182;5.638;2022-12-18T10:14:57;-1.80;99.90
51567;DHT22;37657;53.182;5.638;2022-12-18T10:20:05;-1.80;99.90
51567;DHT22;37657;53.182;5.638;2022-12-18T10:25:20;-1.70;99.90
51567;DHT22;37657;53.182;5.638;2022-12-18T10:27:47;-1.60;99.90
51567;DHT22;37657;53.182;5.638;2022-12-18T10:30:20;-1.60;99.90
51567;DHT22;37657;53.182;5.638;2022-12-18T10:32:46;-1.60;99.90
51567;DHT22;37657;53.182;5.638;2022-12-18T10:35:21;-1.50;99.90
51567;DHT22;37657;53.182;5.638;2022-12-18T10:41:32;-1.40;99.90
51567;DHT22;37657;53.182;5.638;2022-12-18T10:43:38;-1.30;99.90
51567;DHT22;37657;53.182;5.638;2022-12-18T10:46:13;-1.20;99.90
51567;DHT22;37657;53.182;5.638;2022-12-18T10:51:34;-1.20;99.90
51567;DHT22;37657;53.182;5.638;2022-12-18T10:54:16;-1.10;99.90
51567;DHT22;37657;53.182;5.638;2022-12-18T10:56:42;-1.00;99.90
51567;DHT22;37657;53.182;5.638;2022-12-18T10:59:11;-1.00;99.90
51567;DHT22;37657;53.182;5.638;2022-12-18T11:01:47;-1.00;99.90
51567;DHT22;37657;53.182;5.638;2022-12-18T11:04:30;-1.00;99.90
51567;DHT22;37657;53.182;5.638;2022-12-18T11:07:04;-1.00;99.90
51567;DHT22;37657;53.182;5.638;2022-12-18T11:09:39;-0.80;99.90
51567;DHT22;37657;53.182;5.638;2022-12-18T11:12:25;-0.80;99.90
51567;DHT22;37657;53.182;5.638;2022-12-18T11:14:54;-0.70;99.90
51567;DHT22;37657;53.182;5.638;2022-12-18T11:17:28;-0.50;99.90
51567;DHT22;37657;53.182;5.638;2022-12-18T11:20:00;-0.50;99.90
51567;DHT22;37657;53.182;5.638;2022-12-18T11:22:31;-0.50;99.90
51567;DHT22;37657;53.182;5.638;2022-12-18T11:25:00;-0.50;99.90
51567;DHT22;37657;53.182;5.638;2022-12-18T11:27:27;-0.50;99.90
51567;DHT22;37657;53.182;5.638;2022-12-18T11:30:20;-0.50;99.90
51567;DHT22;37657;53.182;5.638;2022-12-18T11:32:59;-0.50;99.90
51567;DHT22;37657;53.182;5.638;2022-12-18T11:35:47;-0.50;99.90
51567;DHT22;37657;53.182;5.638;2022-12-18T11:38:21;-0.40;99.90
51567;DHT22;37657;53.182;5.638;2022-12-18T11:43:55;-0.20;99.90
51567;DHT22;37657;53.182;5.638;2022-12-18T11:46:47;-0.10;99.90
51567;DHT22;37657;53.182;5.638;2022-12-18T11:49:22;0.00;99.90
51567;DHT22;37657;53.182;5.638;2022-12-18T11:51:58;0.00;99.90
51567;DHT22;37657;53.182;5.638;2022-12-18T11:54:25;0.00;99.90
51567;DHT22;37657;53.182;5.638;2022-12-18T12:02:23;0.10;99.90
51567;DHT22;37657;53.182;5.638;2022-12-18T12:05:03;0.10;99.90
51567;DHT22;37657;53.182;5.638;2022-12-18T12:10:26;-0.10;99.90
51567;DHT22;37657;53.182;5.638;2022-12-18T12:13:13;-0.20;99.90
51567;DHT22;37657;53.182;5.638;2022-12-18T12:21:18;-0.20;99.90
51567;DHT22;37657;53.182;5.638;2022-12-18T12:26:35;-0.20;99.90
51567;DHT22;37657;53.182;5.638;2022-12-18T12:29:15;-0.10;99.90
51567;DHT22;37657;53.182;5.638;2022-12-18T12:37:29;0.00;99.90
51567;DHT22;37657;53.182;5.638;2022-12-18T12:40:00;0.00;99.90
51567;DHT22;37657;53.182;5.638;2022-12-18T12:42:33;-0.10;99.90
51567;DHT22;37657;53.182;5.638;2022-12-18T12:45:25;0.00;99.90
51567;DHT22;37657;53.182;5.638;2022-12-18T12:47:53;0.00;99.90
51567;DHT22;37657;53.182;5.638;2022-12-18T12:50:20;-0.10;99.90
51567;DHT22;37657;53.182;5.638;2022-12-18T12:52:53;-0.10;99.90
51567;DHT22;37657;53.182;5.638;2022-12-18T12:55:25;0.00;99.90
51567;DHT22;37657;53.182;5.638;2022-12-18T12:57:57;-0.10;99.90
51567;DHT22;37657;53.182;5.638;2022-12-18T13:00:27;0.00;99.90
51567;DHT22;37657;53.182;5.638;2022-12-18T13:03:12;0.00;99.90
51567;DHT22;37657;53.182;5.638;2022-12-18T13:05:49;0.00;99.90
51567;DHT22;37657;53.182;5.638;2022-12-18T13:08:28;0.00;99.90
51567;DHT22;37657;53.182;5.638;2022-12-18T13:11:02;0.00;99.90
51567;DHT22;37657;53.182;5.638;2022-12-18T13:13:57;0.00;99.90
51567;DHT22;37657;53.182;5.638;2022-12-18T13:16:24;0.00;99.90
51567;DHT22;37657;53.182;5.638;2022-12-18T13:18:55;0.00;99.90
51567;DHT22;37657;53.182;5.638;2022-12-18T13:21:30;-0.10;99.90
51567;DHT22;37657;53.182;5.638;2022-12-18T13:23:56;0.00;99.90
51567;DHT22;37657;53.182;5.638;2022-12-18T13:26:39;-0.10;99.90
51567;DHT22;37657;53.182;5.638;2022-12-18T13:29:04;-0.10;99.90
51567;DHT22;37657;53.182;5.638;2022-12-18T13:34:16;0.00;99.90
51567;DHT22;37657;53.182;5.638;2022-12-18T13:36:42;0.00;99.90
51567;DHT22;37657;53.182;5.638;2022-12-18T13:41:39;0.00;99.90
51567;DHT22;37657;53.182;5.638;2022-12-18T13:44:34;-0.10;99.90
51567;DHT22;37657;53.182;5.638;2022-12-18T13:47:01;0.00;99.90
51567;DHT22;37657;53.182;5.638;2022-12-18T13:49:41;0.10;99.90
51567;DHT22;37657;53.182;5.638;2022-12-18T13:52:21;0.20;99.90
51567;DHT22;37657;53.182;5.638;2022-12-18T13:55:11;0.20;99.90
51567;DHT22;37657;53.182;5.638;2022-12-18T13:57:40;0.30;99.90
51567;DHT22;37657;53.182;5.638;2022-12-18T14:00:27;0.30;99.90
51567;DHT22;37657;53.182;5.638;2022-12-18T14:02:55;0.30;99.90
51567;DHT22;37657;53.182;5.638;2022-12-18T14:05:29;0.30;99.90
51567;DHT22;37657;53.182;5.638;2022-12-18T14:08:13;0.40;99.90
51567;DHT22;37657;53.182;5.638;2022-12-18T14:10:45;0.40;99.90
51567;DHT22;37657;53.182;5.638;2022-12-18T14:13:16;0.30;99.90
51567;DHT22;37657;53.182;5.638;2022-12-18T14:15:45;0.40;99.90
51567;DHT22;37657;53.182;5.638;2022-12-18T14:21:27;0.50;99.90
51567;DHT22;37657;53.182;5.638;2022-12-18T14:24:14;0.40;99.90
51567;DHT22;37657;53.182;5.638;2022-12-18T14:26:40;0.40;99.90
51567;DHT22;37657;53.182;5.638;2022-12-18T14:29:26;0.40;99.90
51567;DHT22;37657;53.182;5.638;2022-12-18T14:32:15;0.30;99.90
51567;DHT22;37657;53.182;5.638;2022-12-18T14:34:50;0.30;99.90
51567;DHT22;37657;53.182;5.638;2022-12-18T14:37:20;0.30;99.90
51567;DHT22;37657;53.182;5.638;2022-12-18T14:42:19;0.20;99.90
51567;DHT22;37657;53.182;5.638;2022-12-18T14:44:45;0.30;99.90
51567;DHT22;37657;53.182;5.638;2022-12-18T14:47:15;0.30;99.90
51567;DHT22;37657;53.182;5.638;2022-12-18T14:49:41;0.30;99.90
51567;DHT22;37657;53.182;5.638;2022-12-18T14:52:26;0.30;99.90
51567;DHT22;37657;53.182;5.638;2022-12-18T14:54:52;0.30;99.90
51567;DHT22;37657;53.182;5.638;2022-12-18T14:57:29;0.20;99.90
51567;DHT22;37657;53.182;5.638;2022-12-18T15:00:11;0.20;99.90
51567;DHT22;37657;53.182;5.638;2022-12-18T15:02:40;0.20;99.90
51567;DHT22;37657;53.182;5.638;2022-12-18T15:05:34;0.20;99.90
51567;DHT22;37657;53.182;5.638;2022-12-18T15:08:01;0.10;99.90
51567;DHT22;37657;53.182;5.638;2022-12-18T15:10:33;0.10;99.90
51567;DHT22;37657;53.182;5.638;2022-12-18T15:23:04;0.10;99.90
51567;DHT22;37657;53.182;5.638;2022-12-18T15:25:37;0.10;99.90
51567;DHT22;37657;53.182;5.638;2022-12-18T15:28:04;0.10;99.90
51567;DHT22;37657;53.182;5.638;2022-12-18T15:30:58;0.20;99.90
51567;DHT22;37657;53.182;5.638;2022-12-18T15:33:26;0.20;99.90
51567;DHT22;37657;53.182;5.638;2022-12-18T15:35:57;0.20;99.90
51567;DHT22;37657;53.182;5.638;2022-12-18T15:38:23;0.20;99.90
51567;DHT22;37657;53.182;5.638;2022-12-18T15:40:48;0.30;99.90
51567;DHT22;37657;53.182;5.638;2022-12-18T15:43:14;0.20;99.90
51567;DHT22;37657;53.182;5.638;2022-12-18T15:45:58;0.10;99.90
51567;DHT22;37657;53.182;5.638;2022-12-18T15:48:24;0.10;99.90
51567;DHT22;37657;53.182;5.638;2022-12-18T15:50:51;0.10;99.90
51567;DHT22;37657;53.182;5.638;2022-12-18T15:53:17;0.10;99.90
51567;DHT22;37657;53.182;5.638;2022-12-18T15:55:43;0.10;99.90
51567;DHT22;37657;53.182;5.638;2022-12-18T15:58:28;0.10;99.90
51567;DHT22;37657;53.182;5.638;2022-12-18T16:00:54;0.00;99.90
51567;DHT22;37657;53.182;5.638;2022-12-18T16:03:21;0.00;99.90
51567;DHT22;37657;53.182;5.638;2022-12-18T16:05:47;-0.20;99.90
51567;DHT22;37657;53.182;5.638;2022-12-18T16:08:12;-0.20;99.90
51567;DHT22;37657;53.182;5.638;2022-12-18T16:10:38;-0.20;99.90
51567;DHT22;37657;53.182;5.638;2022-12-18T16:13:03;-0.30;99.90
51567;DHT22;37657;53.182;5.638;2022-12-18T16:15:29;-0.30;99.90
51567;DHT22;37657;53.182;5.638;2022-12-18T16:17:54;-0.30;99.90
51567;DHT22;37657;53.182;5.638;2022-12-18T16:20:21;-0.30;99.90
51567;DHT22;37657;53.182;5.638;2022-12-18T16:22:48;-0.30;99.90
51567;DHT22;37657;53.182;5.638;2022-12-18T16:25:26;-0.30;99.90
51567;DHT22;37657;53.182;5.638;2022-12-18T16:27:52;-0.30;99.90
51567;DHT22;37657;53.182;5.638;2022-12-18T16:30:23;-0.30;99.90
51567;DHT22;37657;53.182;5.638;2022-12-18T16:32:51;-0.20;99.90
51567;DHT22;37657;53.182;5.638;2022-12-18T16:35:17;-0.20;99.90
51567;DHT22;37657;53.182;5.638;2022-12-18T16:37:43;-0.20;99.90
51567;DHT22;37657;53.182;5.638;2022-12-18T16:40:11;-0.20;99.90
51567;DHT22;37657;53.182;5.638;2022-12-18T16:42:38;-0.20;99.90
51567;DHT22;37657;53.182;5.638;2022-12-18T16:45:05;0.50;99.90
51567;DHT22;37657;53.182;5.638;2022-12-18T16:47:31;-0.10;99.90
51567;DHT22;37657;53.182;5.638;2022-12-18T16:49:57;-0.10;99.90
51567;DHT22;37657;53.182;5.638;2022-12-18T16:52:23;-0.10;99.90
51567;DHT22;37657;53.182;5.638;2022-12-18T16:54:49;0.00;99.90
51567;DHT22;37657;53.182;5.638;2022-12-18T16:57:17;0.00;99.90
51567;DHT22;37657;53.182;5.638;2022-12-18T16:59:43;0.00;99.90
51567;DHT22;37657;53.182;5.638;2022-12-18T17:02:14;0.00;99.90
51567;DHT22;37657;53.182;5.638;2022-12-18T17:04:41;0.10;99.90
51567;DHT22;37657;53.182;5.638;2022-12-18T17:07:07;0.00;99.90
51567;DHT22;37657;53.182;5.638;2022-12-18T17:09:33;0.10;99.90
51567;DHT22;37657;53.182;5.638;2022-12-18T17:11:59;0.20;99.90
51567;DHT22;37657;53.182;5.638;2022-12-18T17:14:25;0.20;99.90